CheckWX is a tool to help pilots better visualize weather data.  It is not intended as a substitute for an official pre-flight weather briefing.

22:14:55 UTC

2A0 METAR
Mark Anton Airport
Dayton, Tennessee, USA
Current

20 mins ago

K2A0 252155Z AUTO 00000KT 9SM FEW055 OVC070 14/13 A2993 RMK A01
Observed
Mar-25 @ 21:55 UTC
Visibility
9 SM
Flight Rules
VFR
Cloud Levels
  • Few at 5,500' AGL
  • Overcast at 7,000' AGL
Temperature
14°C / 57°F
Dewpoint
13°C / 55°F
Humidity
94%
Altimeter
29.93" Hg
Pressure
1013.52 hPa
Previous

40 mins ago

K2A0 252135Z AUTO 00000KT 10SM FEW024 SCT055 BKN075 14/13 A2993 RMK A01
Observed
Mar-25 @ 21:35 UTC
Visibility
10 SM
Flight Rules
VFR
Cloud Levels
  • Few at 2,400' AGL
  • Scattered at 5,500' AGL
  • Broken at 7,500' AGL
Temperature
14°C / 57°F
Dewpoint
13°C / 55°F
Humidity
94%
Altimeter
29.93" Hg
Pressure
1013.52 hPa
Previous

60 mins ago

K2A0 252115Z AUTO 00000KT 10SM SCT025 BKN060 OVC080 14/13 A2993 RMK A01
Observed
Mar-25 @ 21:15 UTC
Visibility
10 SM
Flight Rules
VFR
Cloud Levels
  • Scattered at 2,500' AGL
  • Broken at 6,000' AGL
  • Overcast at 8,000' AGL
Temperature
14°C / 57°F
Dewpoint
13°C / 55°F
Humidity
94%
Altimeter
29.93" Hg
Pressure
1013.52 hPa